Řízení letového provozu České republiky
OPMET data - Ceska Republika Aktualizace: 21.10.2018 00:01:06  UTC
SIGMET / AIRMET - NIL
Warning / Vystraha
VYSTRAHA C. 1 PRO LKAA PLATNOST 210000/210800 RYCHLOST VYSKOVEHO PROUDENI BUDE V ZAPADNI POLOVINE LKAA MEZI FL200/430 A OD 06Z I VE VYCHODNI CASTI MEZI FL260/320 PRESAHOVAT HODNOTU 80KT, SMER NE=
 
METAR / SPECI
METAR LKBC 210000Z AUTO VRB02KT 9999 OVC061 07/03 Q1027=
METAR LKCV 210000Z 30003KT 9999 FEW037 BKN060 08/04 Q1028 NOSIG RMK BLU BLU=
METAR LKKB 210000Z 30004KT CAVOK 09/03 Q1028 RMK BLU=
METAR LKKU NIL
METAR LKKV 210000Z 32002KT 9999 SCT026 BKN043 07/03 Q1028 RMK REG QNH 1023=
METAR LKLN 210000Z AUTO VRB01KT 9999 SCT059 OVC130 06/04 Q1029=
METAR LKMT 210000Z 01006KT 9999 BKN035 OVC048 07/02 Q1026 NOSIG RMK REG QNH 1023=
METAR LKNA 210000Z 32007KT CAVOK 04/M00 Q1026 RMK BLU=
METAR LKPD 210000Z 28002KT CAVOK 08/02 Q1027 RMK BLACK=
METAR LKPR 210000Z 29004KT 9999 SCT028 08/04 Q1028 NOSIG RMK REG QNH 1023=
METAR LKTB 210000Z 32011KT CAVOK 06/00 Q1026 NOSIG RMK REG QNH 1023=
METAR LKVO NIL
TAF
TAF LKBC NIL
TAF LKCV 202300Z 2100/2200 28004KT 9999 SCT035      PROB30 TEMPO 2104/2108 4000 BR BKN012      BECMG 2110/2112 36004KT      BECMG 2117/2119 VRB02KT CAVOK=
TAF LKKB 202300Z 2100/2200 29004KT CAVOK      TEMPO 2102/2109 BKN025      PROB40 2104/2107 6000 SCT012      BECMG 2109/2111 35006KT SCT028      BECMG 2115/2117 VRB02KT CAVOK=
TAF LKKU NIL
TAF LKKV 202300Z 2100/2206 VRB02KT 9999 BKN035      TEMPO 2102/2109 4000 BR BKN009      TEMPO 2122/2206 4000 BR BKN005=
TAF LKLN NIL
TAF LKMT 202300Z 2100/2206 03008KT 9999 BKN017      BECMG 2100/2102 4000 BR BKN012      BECMG 2102/2104 2500 -RA BR BKN006      TEMPO 2107/2116 03010G25KT 5000 BR BKN010=
TAF LKNA 202300Z 2100/2200 32008KT CAVOK      BECMG 2102/2104 9999 BKN035      TEMPO 2105/2110 5000 -RA BR BKN015      BECMG 2110/2112 03006KT      BECMG 2114/2116 CAVOK=
TAF LKPD NIL
TAF LKPR 202300Z 2100/2206 32005KT 9999 SCT040      TEMPO 2100/2108 5000 BR BKN020      BECMG 2110/2112 03005KT      BECMG 2118/2121 VRB02KT      BECMG 2201/2203 3000 BR SCT004      BECMG 2203/2205 0500 FG BKN001=
TAF LKTB 202300Z 2100/2206 35007KT 9999 SCT035      TEMPO 2104/2114 5000 BR BKN020=
TAF LKVO NIL